Terminal Aerodrome Forecast
Issued by NWS

Home | Current Version | Previous Version | Text Only | Print | Product List | Glossary On
Versions: 1 2 3 4 5 6 7 8 9 10 11 12 13 14 15 16 17 18 19
918
FTUS43 KILX 220536
TAFCMI
TAF
KCMI 220536Z 2206/2306 VRB03KT P6SM BKN100
     FM221000 04006KT 3SM BR VCSH BKN050
     FM221700 03012KT 5SM BR VCSH OVC050
     FM222200 01014G22KT P6SM OVC015=

USA.gov is the U.S. government's official web portal to all federal, state and local government web resources and services.